Time;durP1;ratioP1;P1;durP2;ratioP2;P2;SDS_P1;SDS_P2;PMS_P1;PMS_P2;Temp;Humidity;BMP_temperature;BMP_pressure;BME280_temperature;BME280_humidity;BME280_pressure;Samples;Min_cycle;Max_cycle;Signal;HPM_P1;HPM_P2
2022/12/05 00:01:31;;;;;;;15.20;11.70;;;;;;;2.07;72.82;101300.73;106534;1311;22939;-78
2022/12/05 00:04:00;;;;;;;14.90;12.20;;;;;;;2.10;72.79;101301.21;106612;1295;22986;-76
2022/12/05 00:06:29;;;;;;;17.70;13.10;;;;;;;2.12;72.96;101297.97;106507;1310;22795;-77
2022/12/05 00:08:56;;;;;;;15.50;12.90;;;;;;;2.19;73.18;101299.50;106010;1314;22181;-77
2022/12/05 00:11:27;;;;;;;16.70;13.50;;;;;;;2.26;72.95;101295.77;106175;1314;22204;-78
2022/12/05 00:13:56;;;;;;;13.80;12.10;;;;;;;2.28;72.82;101294.27;106366;1313;22136;-76
2022/12/05 00:16:24;;;;;;;17.60;13.60;;;;;;;2.25;72.45;101297.44;106367;1313;23209;-76
2022/12/05 00:18:52;;;;;;;15.90;14.10;;;;;;;2.19;72.59;101294.98;106362;1313;23070;-77
2022/12/05 00:21:25;;;;;;;18.20;14.80;;;;;;;2.19;72.55;101290.63;106234;1314;22140;-77
2022/12/05 00:23:54;;;;;;;17.00;14.40;;;;;;;2.17;72.71;101293.14;106369;1303;22110;-78
2022/12/05 00:26:21;;;;;;;15.50;13.00;;;;;;;2.20;72.77;101297.10;106404;1310;22828;-80
2022/12/05 00:28:48;;;;;;;17.00;13.00;;;;;;;2.21;72.51;101297.83;106820;1305;22908;-80
2022/12/05 00:31:19;;;;;;;16.00;13.80;;;;;;;2.20;72.60;101301.45;106806;1307;22112;-80
2022/12/05 00:33:46;;;;;;;17.20;13.70;;;;;;;2.16;72.20;101306.30;106705;1309;22065;-81
2022/12/05 00:36:19;;;;;;;15.70;13.50;;;;;;;2.10;72.47;101306.06;106766;1309;22102;-80
2022/12/05 00:38:47;;;;;;;16.50;13.80;;;;;;;1.98;72.29;101304.40;106696;1309;22135;-80
2022/12/05 00:41:17;;;;;;;15.90;14.20;;;;;;;1.88;72.32;101300.86;106702;1309;22745;-79
2022/12/05 00:43:45;;;;;;;15.70;13.40;;;;;;;1.78;72.49;101302.19;106691;1306;22126;-81
2022/12/05 00:46:15;;;;;;;14.40;11.80;;;;;;;1.76;72.90;101307.48;106692;1309;22135;-79
2022/12/05 00:48:42;;;;;;;15.30;12.70;;;;;;;1.76;72.79;101310.76;106694;1309;22818;-79
2022/12/05 00:51:14;;;;;;;16.50;14.70;;;;;;;1.75;72.98;101308.80;106652;1309;22971;-80
2022/12/05 00:53:42;;;;;;;15.00;13.00;;;;;;;1.79;73.08;101309.67;106666;1309;22089;-80
2022/12/05 00:56:18;;;;;;;15.80;13.20;;;;;;;1.75;72.80;101308.83;106671;1291;22780;-80
2022/12/05 00:58:46;;;;;;;19.10;14.10;;;;;;;1.64;72.78;101309.23;106643;1309;22077;-76
2022/12/05 01:01:23;;;;;;;15.70;13.80;;;;;;;1.60;73.08;101302.83;106694;1309;22080;-75
2022/12/05 01:03:53;;;;;;;17.10;13.20;;;;;;;1.65;73.30;101303.88;106717;1308;22057;-76
2022/12/05 01:06:21;;;;;;;13.50;11.00;;;;;;;1.71;73.26;101302.23;106698;1309;22254;-75
2022/12/05 01:08:47;;;;;;;15.10;12.90;;;;;;;1.75;73.10;101298.39;106405;1312;22529;-77
2022/12/05 01:11:16;;;;;;;14.50;13.00;;;;;;;1.78;73.36;101299.41;106395;1312;22187;-77
2022/12/05 01:13:43;;;;;;;15.90;14.20;;;;;;;1.84;73.22;101298.60;106339;1312;22156;-79
2022/12/05 01:16:23;;;;;;;15.70;13.40;;;;;;;1.85;72.95;101294.46;106361;1312;22152;-78
2022/12/05 01:18:50;;;;;;;16.20;14.10;;;;;;;1.81;73.03;101285.45;106221;1312;22651;-82
2022/12/05 01:21:18;;;;;;;16.70;14.40;;;;;;;1.80;72.97;101284.73;106379;1312;22253;-77
2022/12/05 01:23:45;;;;;;;16.10;14.40;;;;;;;1.84;73.30;101284.52;106350;1312;22114;-78
2022/12/05 01:26:14;;;;;;;15.50;12.90;;;;;;;1.90;73.29;101285.64;106479;1309;22357;-76
2022/12/05 01:28:41;;;;;;;15.40;13.40;;;;;;;1.97;73.27;101280.36;106720;1309;22075;-78
2022/12/05 01:31:23;;;;;;;15.40;13.70;;;;;;;2.04;73.13;101274.90;106486;1302;22801;-75
2022/12/05 01:33:51;;;;;;;18.60;14.40;;;;;;;2.11;72.91;101272.03;106417;1312;22173;-78
2022/12/05 01:36:18;;;;;;;16.30;14.50;;;;;;;2.11;72.81;101271.35;105903;1315;22208;-79
2022/12/05 01:38:45;;;;;;;16.00;14.20;;;;;;;2.12;72.75;101272.61;106163;1309;22193;-77
2022/12/05 01:41:15;;;;;;;17.00;14.10;;;;;;;2.11;72.57;101270.66;106144;1314;22935;-76
2022/12/05 01:44:11;;;;;;;16.40;14.00;;;;;;;2.10;72.72;101267.50;106171;1315;22805;-78
2022/12/05 01:46:43;;;;;;;17.80;15.30;;;;;;;2.15;72.72;101270.11;105450;1315;22164;-76
2022/12/05 01:49:25;;;;;;;16.80;13.80;;;;;;;2.16;72.61;101266.34;106122;1315;22138;-77
2022/12/05 01:51:57;;;;;;;15.50;12.90;;;;;;;2.18;72.44;101266.23;106324;1313;22184;-77
2022/12/05 01:54:24;;;;;;;17.10;13.60;;;;;;;2.16;72.30;101266.16;106516;1307;22104;-76
2022/12/05 01:57:01;;;;;;;15.20;13.50;;;;;;;2.19;72.36;101270.11;106709;1309;22123;-77
2022/12/05 01:59:33;;;;;;;18.00;14.80;;;;;;;2.21;72.39;101269.67;106794;1305;22092;-77
2022/12/05 02:02:00;;;;;;;18.70;15.30;;;;;;;2.21;72.24;101269.16;106796;1307;22729;-77
2022/12/05 02:04:27;;;;;;;18.50;15.70;;;;;;;2.21;72.15;101264.08;106765;1307;22146;-76
2022/12/05 02:06:54;;;;;;;18.30;15.10;;;;;;;2.05;71.66;101263.83;106810;1298;22142;-77
2022/12/05 02:09:22;;;;;;;18.50;15.50;;;;;;;1.86;71.73;101261.15;106647;1309;22761;-76
2022/12/05 02:11:57;;;;;;;17.20;14.30;;;;;;;1.78;72.27;101261.71;106652;1308;22992;-76
2022/12/05 02:14:50;;;;;;;16.90;14.20;;;;;;;1.78;72.49;101253.90;106653;1309;22212;-76
2022/12/05 02:17:29;;;;;;;15.00;12.70;;;;;;;1.77;72.23;101254.02;106815;1307;22086;-78
2022/12/05 02:20:11;;;;;;;16.70;14.40;;;;;;;1.64;72.20;101251.05;106699;1307;22074;-78
2022/12/05 02:22:47;;;;;;;18.10;14.60;;;;;;;1.55;72.64;101246.20;106640;1309;22091;-79
2022/12/05 02:25:33;;;;;;;16.20;14.30;;;;;;;1.49;72.74;101245.42;106600;1309;159068;-79
2022/12/05 02:28:19;;;;;;;;;;;;;;;1.44;72.95;101242.59;106825;1307;22284;-77
2022/12/05 02:30:56;;;;;;;16.10;13.60;;;;;;;1.47;73.37;101243.60;106783;1307;22030;-77
2022/12/05 02:33:27;;;;;;;16.60;13.70;;;;;;;1.47;73.05;101240.14;106800;1307;22072;-77
2022/12/05 02:35:54;;;;;;;19.00;13.30;;;;;;;1.51;73.10;101242.35;106761;1307;22241;-78
2022/12/05 02:38:30;;;;;;;14.60;12.80;;;;;;;1.54;73.15;101239.73;106705;1308;22259;-79
2022/12/05 02:41:41;;;;;;;15.30;13.40;;;;;;;1.58;73.11;101237.79;106655;1309;22099;-77
2022/12/05 02:44:16;;;;;;;15.00;12.80;;;;;;;1.57;73.03;101233.77;106502;1312;22149;-79
2022/12/05 02:46:45;;;;;;;16.60;13.80;;;;;;;1.56;73.13;101233.88;106390;1312;22123;-80
2022/12/05 02:49:18;;;;;;;16.90;14.80;;;;;;;1.62;73.34;101234.34;106615;1309;22088;-78
2022/12/05 02:51:49;;;;;;;18.30;14.50;;;;;;;1.67;73.13;101226.69;106678;1308;22089;-77
2022/12/05 02:54:20;;;;;;;16.20;13.50;;;;;;;1.68;72.99;101226.75;106638;1309;22791;-77
2022/12/05 02:56:49;;;;;;;13.20;11.70;;;;;;;1.61;72.57;101219.85;106696;1308;22072;-79
2022/12/05 02:59:16;;;;;;;14.70;12.10;;;;;;;1.53;72.73;101215.89;106699;1308;22051;-79
2022/12/05 03:01:49;;;;;;;13.90;11.60;;;;;;;1.54;72.98;101208.65;106748;1309;22035;-77
2022/12/05 03:04:18;;;;;;;14.80;13.10;;;;;;;1.56;73.06;101202.09;106720;1308;22777;-77
2022/12/05 03:06:54;;;;;;;13.90;12.40;;;;;;;1.57;72.97;101195.74;106729;1304;22054;-77
2022/12/05 03:09:27;;;;;;;19.60;12.20;;;;;;;1.59;73.09;101189.55;106727;1308;22198;-78
2022/12/05 03:12:10;;;;;;;14.60;12.20;;;;;;;1.62;72.90;101192.80;106700;1309;22109;-80
2022/12/05 03:14:49;;;;;;;15.30;12.60;;;;;;;1.63;72.92;101191.11;106713;1308;22776;-78
2022/12/05 03:17:23;;;;;;;11.90;10.40;;;;;;;1.61;72.60;101192.42;106724;1308;22055;-78
2022/12/05 03:20:01;;;;;;;13.40;9.80;;;;;;;1.54;72.67;101186.61;106577;1309;22801;-78
2022/12/05 03:22:36;;;;;;;13.90;11.10;;;;;;;1.55;72.88;101185.95;106626;1310;22920;-82
2022/12/05 03:25:05;;;;;;;13.30;10.90;;;;;;;1.58;72.88;101185.90;106570;1310;22917;-83
2022/12/05 03:28:06;;;;;;;13.70;12.20;;;;;;;1.63;72.88;101189.90;106522;1310;22201;-81
2022/12/05 03:30:36;;;;;;;13.80;11.50;;;;;;;1.63;72.96;101193.91;106595;1310;22848;-80
2022/12/05 03:33:11;;;;;;;12.40;11.10;;;;;;;1.60;72.54;101202.11;106577;1310;22191;-81
2022/12/05 03:35:53;;;;;;;12.50;11.20;;;;;;;1.50;72.63;101205.00;106586;1310;22102;-78
2022/12/05 03:38:30;;;;;;;12.80;11.10;;;;;;;1.43;72.69;101206.98;106554;1310;22052;-78
2022/12/05 03:41:29;;;;;;;11.50;9.70;;;;;;;1.40;72.83;101217.30;106622;1310;22763;-79
2022/12/05 03:44:04;;;;;;;13.00;11.60;;;;;;;1.45;73.03;101224.59;106530;1310;22179;-78
2022/12/05 03:46:38;;;;;;;15.70;11.80;;;;;;;1.55;73.36;101231.44;106606;1310;22181;-82
2022/12/05 03:49:23;;;;;;;12.60;11.30;;;;;;;1.66;73.25;101233.96;106569;1310;22534;-78
2022/12/05 03:52:06;;;;;;;15.30;12.60;;;;;;;1.76;73.16;101234.38;106504;1306;22113;-78
2022/12/05 03:54:45;;;;;;;14.40;12.70;;;;;;;1.84;73.10;101232.41;106572;1310;22258;-76
2022/12/05 03:57:27;;;;;;;15.50;13.30;;;;;;;1.86;72.62;101231.48;106539;1310;22063;-79
2022/12/05 04:00:26;;;;;;;14.70;13.10;;;;;;;1.85;72.61;101223.41;106622;1310;22152;-79
2022/12/05 04:03:06;;;;;;;14.10;12.50;;;;;;;1.83;72.51;101227.34;106583;1310;22071;-76
2022/12/05 04:05:53;;;;;;;14.20;12.70;;;;;;;1.82;72.56;101228.89;106592;1310;22930;-77
2022/12/05 04:08:26;;;;;;;14.70;11.60;;;;;;;1.84;72.46;101221.30;106562;1310;22068;-76
2022/12/05 04:10:59;;;;;;;12.50;10.70;;;;;;;1.83;72.40;101222.63;106558;1310;22303;-77
2022/12/05 04:13:34;;;;;;;12.40;11.00;;;;;;;1.86;72.44;101214.07;106613;1310;22151;-79
2022/12/05 04:21:36;;;;;;;13.70;12.30;;;;;;;1.94;72.27;101208.33;106655;1309;22362;-80
2022/12/05 04:22:19;;;;;;;13.90;12.30;;;;;;;1.95;72.31;101204.39;106729;1307;22056;-76
2022/12/05 04:28:07;;;;;;;13.50;12.10;;;;;;;1.94;71.91;101203.62;106829;1307;22069;-76
2022/12/05 04:30:52;;;;;;;13.80;11.90;;;;;;;1.88;71.86;101201.66;106830;1307;22077;-76
2022/12/05 04:33:53;;;;;;;15.50;12.40;;;;;;;1.82;71.85;101191.84;106800;1307;22076;-75
2022/12/05 04:36:30;;;;;;;12.80;11.30;;;;;;;1.77;71.93;101188.71;106729;1308;22064;-76
2022/12/05 04:39:08;;;;;;;10.60;9.40;;;;;;;1.76;72.00;101191.27;106826;1307;22054;-76
2022/12/05 04:41:50;;;;;;;10.90;9.80;;;;;;;1.78;72.08;101197.79;106799;1300;22084;-76
2022/12/05 04:44:23;;;;;;;12.90;11.40;;;;;;;1.83;72.10;101197.47;106712;1308;22928;-76
2022/12/05 04:46:52;;;;;;;12.70;11.30;;;;;;;1.88;72.01;101195.59;106770;1307;22121;-76
2022/12/05 04:49:24;;;;;;;11.40;10.30;;;;;;;1.91;72.02;101195.50;106698;1309;22139;-77
2022/12/05 04:51:55;;;;;;;12.40;10.80;;;;;;;1.95;71.92;101193.42;106762;1300;22130;-76
2022/12/05 04:54:31;;;;;;;12.10;10.80;;;;;;;1.91;71.72;101195.52;106585;1309;22146;-78
2022/12/05 04:57:09;;;;;;;12.60;10.60;;;;;;;1.88;71.49;101192.62;106712;1308;22204;-76
2022/12/05 04:59:35;;;;;;;12.90;11.50;;;;;;;1.81;71.71;101192.89;106798;1308;22066;-76
2022/12/05 05:02:16;;;;;;;12.60;10.90;;;;;;;1.75;71.57;101189.17;106799;1308;22079;-80
2022/12/05 05:04:49;;;;;;;10.70;9.60;;;;;;;1.69;71.63;101189.28;106775;1299;22196;-81
2022/12/05 05:07:17;;;;;;;11.60;10.00;;;;;;;1.68;71.75;101190.10;106689;1309;22842;-84
2022/12/05 05:09:43;;;;;;;12.30;10.90;;;;;;;1.64;71.66;101191.84;106776;1309;22819;-83
2022/12/05 05:12:10;;;;;;;12.20;11.00;;;;;;;1.64;72.02;101193.40;106601;1309;22065;-83
2022/12/05 05:14:44;;;;;;;11.70;9.90;;;;;;;1.70;72.11;101199.22;106719;1309;22153;-81
2022/12/05 05:17:10;;;;;;;11.60;10.30;;;;;;;1.70;71.85;101198.33;106675;1309;22107;-90
2022/12/05 05:19:37;;;;;;;12.70;9.90;;;;;;;1.71;71.90;101198.92;106758;1309;22087;-84
2022/12/05 05:22:04;;;;;;;12.40;11.10;;;;;;;1.75;71.93;101200.81;106750;1308;22742;-84
2022/12/05 05:24:30;;;;;;;13.40;10.70;;;;;;;1.77;71.77;101203.81;106527;1311;22840;-78
2022/12/05 05:26:57;;;;;;;13.80;11.80;;;;;;;1.75;71.72;101202.00;106363;1311;22110;-80
2022/12/05 05:29:24;;;;;;;12.20;10.90;;;;;;;1.72;71.62;101204.33;106519;1312;22122;-80
2022/12/05 05:31:51;;;;;;;11.50;10.30;;;;;;;1.67;71.52;101210.23;106367;1313;22160;-78
2022/12/05 05:34:17;;;;;;;10.10;9.10;;;;;;;1.72;71.81;101211.28;106618;1313;22819;-79
2022/12/05 05:36:44;;;;;;;10.80;9.70;;;;;;;1.78;71.82;101212.37;106612;1313;22208;-79
2022/12/05 05:39:13;;;;;;;11.00;9.80;;;;;;;1.80;71.61;101213.48;106419;1312;22117;-80
2022/12/05 05:41:42;;;;;;;11.00;10.00;;;;;;;1.79;71.52;101212.92;106437;1312;22117;-80
2022/12/05 05:44:09;;;;;;;11.20;10.00;;;;;;;1.79;71.43;101216.73;106787;1308;22143;-80
2022/12/05 05:46:36;;;;;;;12.30;10.70;;;;;;;1.74;71.34;101220.56;106785;1307;22071;-80
2022/12/05 05:49:04;;;;;;;13.00;10.40;;;;;;;1.65;71.17;101216.20;106843;1306;22086;-78
2022/12/05 05:51:31;;;;;;;12.20;10.90;;;;;;;1.57;71.29;101215.38;106712;1309;22096;-78
2022/12/05 05:53:58;;;;;;;11.40;10.10;;;;;;;1.53;71.54;101218.67;106663;1309;22078;-80
2022/12/05 05:56:26;;;;;;;9.10;8.20;;;;;;;1.50;71.52;101213.49;106640;1309;22085;-78
2022/12/05 05:58:55;;;;;;;12.30;9.50;;;;;;;1.45;71.79;101215.59;106670;1309;22084;-84
2022/12/05 06:01:22;;;;;;;13.00;10.30;;;;;;;1.52;71.90;101210.65;106234;1313;22136;-83
2022/12/05 06:03:49;;;;;;;11.10;9.80;;;;;;;1.55;71.78;101210.95;106252;1314;22150;-82
2022/12/05 06:06:17;;;;;;;11.40;9.70;;;;;;;1.57;71.86;101211.55;106181;1314;22108;-82
2022/12/05 06:08:45;;;;;;;11.80;10.50;;;;;;;1.60;71.81;101213.57;106277;1315;22833;-83
2022/12/05 06:11:17;;;;;;;12.80;10.20;;;;;;;1.61;71.82;101212.75;106233;1314;22904;-82
2022/12/05 06:13:55;;;;;;;13.10;11.00;;;;;;;1.67;71.85;101210.72;106169;1315;22179;-83
2022/12/05 06:16:22;;;;;;;12.30;10.30;;;;;;;1.68;71.65;101204.70;106319;1313;22772;-85
2022/12/05 06:18:49;;;;;;;14.30;10.30;;;;;;;1.72;71.81;101203.98;106016;1309;22101;-84
2022/12/05 06:21:16;;;;;;;11.20;9.10;;;;;;;1.79;71.74;101201.82;106742;1308;22238;-81
2022/12/05 06:23:43;;;;;;;10.70;9.60;;;;;;;1.84;71.62;101202.19;106705;1308;22093;-86
2022/12/05 06:26:12;;;;;;;13.80;10.70;;;;;;;1.91;71.76;101210.29;106712;1309;22165;-85
2022/12/05 06:28:40;;;;;;;12.90;10.10;;;;;;;1.95;71.55;101209.42;106685;1309;22068;-86
2022/12/05 06:31:13;;;;;;;12.20;10.90;;;;;;;2.01;71.49;101212.89;106893;1309;22093;-86
2022/12/05 06:33:40;;;;;;;12.80;10.80;;;;;;;2.01;71.19;101211.71;107012;1310;22129;-88
2022/12/05 06:36:09;;;;;;;12.70;11.40;;;;;;;2.00;71.23;101210.80;106871;1309;22734;-87
2022/12/05 06:38:37;;;;;;;14.90;12.10;;;;;;;1.96;71.05;101206.67;106920;1309;22799;-89
2022/12/05 06:41:10;;;;;;;14.80;11.50;;;;;;;1.93;71.15;101207.60;106862;1310;22076;-91
2022/12/05 06:43:37;;;;;;;14.30;12.40;;;;;;;1.91;71.25;101202.67;106667;1310;22055;-88
2022/12/05 06:46:08;;;;;;;11.50;10.20;;;;;;;1.85;71.01;101205.70;106659;1305;22069;-88
2022/12/05 06:48:35;;;;;;;15.50;11.50;;;;;;;1.82;71.45;101208.73;106746;1310;22736;-90
2022/12/05 06:51:03;;;;;;;12.30;10.90;;;;;;;1.83;71.42;101207.55;106628;1310;22137;-89
2022/12/05 06:53:29;;;;;;;14.10;12.20;;;;;;;1.82;71.43;101216.02;106689;1300;22083;-90
2022/12/05 06:55:59;;;;;;;13.20;10.80;;;;;;;1.88;71.72;101215.20;106663;1308;22840;-91
2022/12/05 06:58:26;;;;;;;12.70;11.10;;;;;;;1.89;71.35;101214.20;106570;1310;22089;-89
2022/12/05 07:03:39;;;;;;;14.80;11.60;;;;;;;1.80;71.64;101211.08;106681;1299;22104;-89
2022/12/05 07:06:07;;;;;;;13.50;12.20;;;;;;;1.81;71.53;101211.11;106682;1310;22195;-90
2022/12/05 07:08:34;;;;;;;13.00;11.70;;;;;;;1.80;71.61;101209.17;106619;1311;22067;-89
2022/12/05 07:11:02;;;;;;;13.40;10.80;;;;;;;1.79;71.54;101214.66;106658;1311;22166;-91
2022/12/05 07:13:29;;;;;;;13.30;10.80;;;;;;;1.82;71.72;101212.21;106899;1301;22052;-90
2022/12/05 07:15:57;;;;;;;15.80;13.00;;;;;;;1.88;71.88;101210.70;106981;1310;22096;-88
2022/12/05 07:18:25;;;;;;;14.00;11.40;;;;;;;1.87;71.38;101210.66;106963;1312;21879;-89
2022/12/05 07:21:45;;;;;;;15.40;13.20;;;;;;;1.90;71.79;101205.89;103833;1344;545263;-90
2022/12/05 07:24:12;;;;;;;14.30;11.90;;;;;;;1.92;71.70;101201.31;105617;1323;22285;-90
2022/12/05 07:26:39;;;;;;;13.50;12.10;;;;;;;1.93;71.54;101200.99;105639;1317;25372;-89
2022/12/05 07:29:06;;;;;;;14.50;12.80;;;;;;;1.88;71.47;101202.67;105502;1312;22438;-89
2022/12/05 07:31:32;;;;;;;14.80;12.40;;;;;;;1.82;71.42;101202.66;105366;1318;22542;-89
2022/12/05 07:33:59;;;;;;;11.50;10.10;;;;;;;1.84;71.82;101202.04;105328;1320;22580;-90
2022/12/05 07:36:26;;;;;;;15.30;11.20;;;;;;;1.91;71.96;101200.91;104825;1323;179207;-90
2022/12/05 07:38:55;;;;;;;14.00;12.10;;;;;;;2.00;71.81;101203.52;104813;1328;22745;-89
2022/12/05 07:41:25;;;;;;;14.40;12.10;;;;;;;2.07;71.83;101199.94;103881;1319;22434;-89
2022/12/05 07:43:54;;;;;;;14.50;12.10;;;;;;;2.06;71.33;101199.58;103985;1312;22482;-90
2022/12/05 07:46:22;;;;;;;15.90;13.40;;;;;;;2.03;71.39;101196.32;103498;1326;24290;-89
2022/12/05 07:48:49;;;;;;;15.40;12.60;;;;;;;2.03;71.48;101195.79;103259;1317;22500;-87
2022/12/05 07:51:18;;;;;;;14.90;13.30;;;;;;;2.02;71.53;101196.80;103542;1329;22468;-90
2022/12/05 07:54:06;;;;;;;14.40;12.70;;;;;;;2.07;71.62;101198.91;101604;1343;545323;-90
2022/12/05 07:56:33;;;;;;;15.20;12.30;;;;;;;2.05;71.60;101190.34;104030;1310;24251;-91
2022/12/05 07:58:59;;;;;;;15.50;11.60;;;;;;;2.02;71.34;101191.77;103136;1317;22429;-88
2022/12/05 08:01:28;;;;;;;15.10;12.10;;;;;;;2.01;71.57;101188.06;103224;1317;24038;-91
2022/12/05 08:03:58;;;;;;;14.20;11.80;;;;;;;2.01;71.42;101183.73;102892;1317;22902;-89
2022/12/05 08:06:28;;;;;;;16.20;12.20;;;;;;;1.97;71.53;101181.18;102446;1321;22438;-89
2022/12/05 08:08:55;;;;;;;14.50;12.90;;;;;;;1.97;71.58;101181.67;102423;1323;23884;-89
2022/12/05 08:11:29;;;;;;;16.10;12.90;;;;;;;1.95;71.53;101179.35;102464;1314;22533;-89
2022/12/05 08:13:57;;;;;;;18.00;14.00;;;;;;;1.95;71.85;101173.27;102457;1322;23614;-89
2022/12/05 08:22:34;;;;;;;14.90;12.60;;;;;;;2.00;71.51;101175.89;101074;1336;545004;-91
2022/12/05 08:25:00;;;;;;;13.40;10.90;;;;;;;1.95;71.75;101183.02;103833;1321;22747;-90
2022/12/05 08:27:27;;;;;;;13.70;11.60;;;;;;;2.01;71.71;101185.64;103712;1315;24047;-91
2022/12/05 08:29:54;;;;;;;13.40;11.50;;;;;;;2.03;71.68;101188.67;103532;1319;22494;-91
2022/12/05 08:32:22;;;;;;;14.30;12.10;;;;;;;2.03;71.69;101182.94;104350;1319;22484;-92
2022/12/05 08:34:48;;;;;;;16.20;12.10;;;;;;;2.05;71.74;101185.11;105028;1319;22501;-91
2022/12/05 08:37:15;;;;;;;14.10;12.40;;;;;;;2.07;71.68;101185.38;105922;1312;159322;-88
2022/12/05 08:39:42;;;;;;;16.10;12.50;;;;;;;2.10;71.69;101192.08;105683;1318;22562;-92
2022/12/05 08:42:09;;;;;;;14.30;12.20;;;;;;;2.10;71.59;101184.61;106330;1309;22715;-89
2022/12/05 08:44:35;;;;;;;15.20;13.30;;;;;;;2.07;71.53;101183.80;106652;1306;22735;-90
2022/12/05 08:47:02;;;;;;;14.80;12.70;;;;;;;2.11;71.51;101186.20;106764;1299;22535;-88
2022/12/05 08:49:29;;;;;;;15.10;12.20;;;;;;;2.09;71.34;101187.35;106517;1299;22998;-90
2022/12/05 08:51:55;;;;;;;14.00;12.50;;;;;;;2.13;71.74;101188.72;106983;1306;22833;-89
2022/12/05 08:54:22;;;;;;;16.60;12.50;;;;;;;2.21;71.55;101187.13;107102;1303;22088;-89
2022/12/05 08:56:50;;;;;;;20.00;14.60;;;;;;;2.29;71.75;101185.83;107084;1303;22104;-89
2022/12/05 08:59:18;;;;;;;16.30;13.30;;;;;;;2.38;71.65;101182.71;106362;1309;22114;-90
2022/12/05 09:01:45;;;;;;;17.30;13.00;;;;;;;2.44;71.29;101175.94;106604;1303;22191;-89
2022/12/05 09:04:12;;;;;;;17.00;14.20;;;;;;;2.41;71.00;101180.20;106557;1310;22254;-91
2022/12/05 09:06:40;;;;;;;16.50;14.50;;;;;;;2.39;71.16;101174.38;106567;1309;22179;-90
2022/12/05 09:09:10;;;;;;;15.30;13.70;;;;;;;2.36;70.84;101175.64;106565;1308;22318;-90
2022/12/05 09:11:44;;;;;;;18.00;15.20;;;;;;;2.27;70.85;101169.60;106527;1308;22098;-90
2022/12/05 09:14:12;;;;;;;15.00;13.40;;;;;;;2.24;71.10;101166.73;106564;1309;22237;-90
2022/12/05 09:16:39;;;;;;;16.30;12.70;;;;;;;2.25;71.28;101162.92;106626;1306;22092;-91
2022/12/05 09:19:16;;;;;;;17.70;13.50;;;;;;;2.33;71.40;101163.89;106971;1303;22088;-91
2022/12/05 09:21:43;;;;;;;;;;;;;;;2.40;71.35;101158.08;106985;1306;22378;-90
2022/12/05 09:24:11;;;;;;;16.80;13.20;;;;;;;2.46;71.30;101151.69;106997;1306;22183;-89
2022/12/05 09:26:39;;;;;;;16.90;13.60;;;;;;;2.51;71.16;101147.86;106942;1304;22090;-91
2022/12/05 09:29:08;;;;;;;17.80;14.20;;;;;;;2.50;70.94;101149.56;106889;1306;22205;-90
2022/12/05 09:31:47;;;;;;;18.50;14.30;;;;;;;2.47;70.91;101140.27;107024;1306;22096;-89
2022/12/05 09:34:16;;;;;;;19.10;15.10;;;;;;;2.47;71.09;101135.90;106926;1305;22174;-90
2022/12/05 09:36:45;;;;;;;20.20;14.80;;;;;;;2.52;71.18;101130.33;106902;1305;22751;-90
2022/12/05 09:39:11;;;;;;;17.90;14.50;;;;;;;2.56;71.20;101120.22;107029;1305;22102;-89
2022/12/05 09:42:22;;;;;;;15.90;13.50;;;;;;;2.59;70.91;101115.27;107093;1306;22160;-89
2022/12/05 09:45:10;;;;;;;16.00;12.80;;;;;;;2.61;70.75;101118.34;107235;1305;22908;-91
2022/12/05 09:47:52;;;;;;;16.10;13.80;;;;;;;2.63;70.66;101121.88;107086;1306;22108;-89
2022/12/05 09:50:21;;;;;;;16.70;14.40;;;;;;;2.56;70.53;101115.71;107166;1305;22106;-91
2022/12/05 09:53:10;;;;;;;15.10;13.50;;;;;;;2.54;70.73;101112.15;107079;1305;22066;-90
2022/12/05 09:55:48;;;;;;;19.30;15.30;;;;;;;2.62;70.98;101109.33;107040;1305;22584;-90
2022/12/05 09:58:24;;;;;;;18.10;14.20;;;;;;;2.67;70.90;101112.59;106884;1306;22081;-90
2022/12/05 10:00:57;;;;;;;16.70;14.30;;;;;;;2.69;70.57;101111.64;106821;1306;22138;-92
2022/12/05 10:04:09;;;;;;;18.30;14.60;;;;;;;2.66;70.54;101116.59;106967;1306;22106;-91
2022/12/05 10:06:49;;;;;;;15.90;13.00;;;;;;;2.68;70.72;101111.08;106825;1306;22136;-91
2022/12/05 10:09:37;;;;;;;19.20;13.40;;;;;;;2.69;70.55;101104.48;106908;1305;22116;-90
2022/12/05 10:12:32;;;;;;;16.90;14.10;;;;;;;2.74;70.57;101109.17;106982;1305;22087;-89
2022/12/05 10:15:10;;;;;;;17.80;13.70;;;;;;;2.78;70.59;101110.56;106970;1306;22202;-92
2022/12/05 10:17:41;;;;;;;16.10;13.80;;;;;;;2.81;70.48;101104.02;106983;1302;22125;-91
2022/12/05 10:20:15;;;;;;;18.20;14.80;;;;;;;2.83;70.34;101102.20;106950;1304;22190;-90
2022/12/05 10:22:48;;;;;;;19.10;14.60;;;;;;;2.79;70.35;101098.40;106916;1306;22104;-91
2022/12/05 10:25:20;;;;;;;17.90;14.40;;;;;;;2.81;70.49;101093.79;107012;1306;22050;-92
2022/12/05 10:27:53;;;;;;;20.50;15.80;;;;;;;2.83;70.44;101095.57;106975;1306;22062;-90
2022/12/05 10:30:23;;;;;;;17.70;15.90;;;;;;;2.81;70.34;101095.33;106935;1306;22060;-90
2022/12/05 10:32:53;;;;;;;20.60;15.90;;;;;;;2.81;70.36;101093.27;106937;1306;22967;-91
2022/12/05 10:35:26;;;;;;;20.80;15.10;;;;;;;2.80;70.29;101088.35;107022;1306;22114;-89
2022/12/05 10:37:59;;;;;;;17.20;14.60;;;;;;;2.82;70.33;101094.16;106943;1306;22824;-89
2022/12/05 10:40:34;;;;;;;16.70;14.10;;;;;;;2.82;70.21;101092.09;106979;1292;22751;-90
2022/12/05 10:43:07;;;;;;;18.60;15.30;;;;;;;2.86;70.44;101084.55;106820;1302;22140;-90
2022/12/05 10:45:41;;;;;;;22.00;17.30;;;;;;;2.90;70.36;101084.48;106807;1306;22137;-89
2022/12/05 10:48:11;;;;;;;22.10;16.00;;;;;;;2.93;70.33;101073.13;106996;1306;22110;-91
2022/12/05 10:50:43;;;;;;;17.20;15.10;;;;;;;2.95;70.15;101074.59;106949;1306;22136;-91
2022/12/05 10:53:15;;;;;;;20.70;16.30;;;;;;;2.93;70.16;101073.63;106945;1306;22203;-89
2022/12/05 10:55:49;;;;;;;20.30;16.80;;;;;;;2.89;70.15;101078.04;106668;1309;22119;-91
2022/12/05 10:58:36;;;;;;;21.50;17.00;;;;;;;2.87;70.03;101079.18;106656;1304;22121;-91
2022/12/05 11:01:08;;;;;;;21.10;17.00;;;;;;;2.83;70.11;101076.98;105953;1317;22123;-90
2022/12/05 11:03:39;;;;;;;26.60;19.40;;;;;;;2.80;70.17;101077.23;105833;1317;22222;-90
2022/12/05 11:06:25;;;;;;;20.20;15.60;;;;;;;2.79;70.13;101076.16;106018;1318;22150;-87
2022/12/05 11:09:04;;;;;;;;;;;;;;;2.76;70.12;101074.30;106035;1310;22444;-90
2022/12/05 11:11:32;;;;;;;21.30;16.50;;;;;;;2.76;70.42;101065.92;106093;1317;22113;-90
2022/12/05 11:14:21;;;;;;;21.20;17.40;;;;;;;2.80;70.63;101061.19;106245;1311;22121;-90
2022/12/05 11:16:57;;;;;;;21.50;17.50;;;;;;;2.83;70.42;101055.39;106372;1311;22174;-90
2022/12/05 11:19:31;;;;;;;21.20;16.50;;;;;;;2.84;70.40;101050.05;106738;1306;22133;-90
2022/12/05 11:21:58;;;;;;;18.50;16.10;;;;;;;2.85;70.43;101046.25;106918;1304;22204;-90
2022/12/05 11:24:37;;;;;;;23.30;18.50;;;;;;;2.88;70.49;101043.38;106938;1297;22357;-91
2022/12/05 11:27:16;;;;;;;20.80;16.60;;;;;;;2.90;70.30;101033.70;107060;1306;22075;-90
2022/12/05 11:30:12;;;;;;;21.40;16.60;;;;;;;2.85;70.20;101036.15;107108;1306;22064;-91
2022/12/05 11:32:39;;;;;;;20.90;15.40;;;;;;;2.89;70.70;101029.33;107116;1306;22060;-90
2022/12/05 11:35:11;;;;;;;19.90;15.80;;;;;;;2.97;70.43;101032.20;107115;1300;22758;-90
2022/12/05 11:37:59;;;;;;;20.30;15.60;;;;;;;3.00;70.39;101030.88;107307;1306;22183;-91
2022/12/05 11:40:36;;;;;;;21.10;17.40;;;;;;;3.06;70.41;101029.14;107165;1296;22153;-90
2022/12/05 11:43:21;;;;;;;21.80;16.50;;;;;;;2.99;70.06;101028.08;107082;1305;22109;-91
2022/12/05 11:46:13;;;;;;;24.60;17.30;;;;;;;2.94;70.07;101021.30;107116;1306;22122;-90
2022/12/05 11:49:02;;;;;;;24.70;17.10;;;;;;;2.92;70.56;101011.48;107225;1306;22112;-89
2022/12/05 11:51:44;;;;;;;22.20;16.30;;;;;;;2.90;70.33;101016.14;107064;1306;22059;-90